Time;durP1;ratioP1;P1;durP2;ratioP2;P2;SDS_P1;SDS_P2;PMS_P1;PMS_P2;Temp;Humidity;BMP_temperature;BMP_pressure;BME280_temperature;BME280_humidity;BME280_pressure;Samples;Min_cycle;Max_cycle;Signal;HPM_P1;HPM_P2
2023/12/26 00:00:30;;;;;;;;;;;19.70;65.00;;;;;;5077487;28;19928;-62
2023/12/26 00:02:55;;;;;;;;;;;19.70;65.00;;;;;;5075836;28;19920;-62
2023/12/26 00:05:21;;;;;;;;;;;19.70;65.00;;;;;;5095115;28;19932;-62
2023/12/26 00:07:47;;;;;;;;;;;19.70;65.00;;;;;;5095112;28;20294;-63
2023/12/26 00:10:15;;;;;;;;;;;19.70;65.00;;;;;;5093436;28;19928;-62
2023/12/26 00:12:42;;;;;;;;;;;19.70;65.00;;;;;;5076984;28;19924;-62
2023/12/26 00:15:08;;;;;;;;;;;19.70;65.00;;;;;;5093925;28;20379;-61
2023/12/26 00:17:33;;;;;;;;;;;19.70;65.00;;;;;;5077038;28;19931;-62
2023/12/26 00:19:59;;;;;;;;;;;19.70;65.00;;;;;;5076576;28;20455;-62
2023/12/26 00:22:24;;;;;;;;;;;19.70;65.00;;;;;;5075817;28;19924;-62
2023/12/26 00:24:50;;;;;;;;;;;19.60;64.90;;;;;;5076635;28;19928;-62
2023/12/26 00:27:15;;;;;;;;;;;19.60;64.90;;;;;;5076302;28;19932;-63
2023/12/26 00:29:41;;;;;;;;;;;19.60;64.90;;;;;;5094177;28;19963;-62
2023/12/26 00:32:07;;;;;;;;;;;19.60;64.90;;;;;;5076465;28;19924;-62
2023/12/26 00:34:32;;;;;;;;;;;19.60;64.80;;;;;;5094713;28;19924;-62
2023/12/26 00:36:58;;;;;;;;;;;19.60;64.80;;;;;;5093642;28;20023;-62
2023/12/26 00:39:23;;;;;;;;;;;19.60;64.80;;;;;;5094545;28;20027;-62
2023/12/26 00:41:49;;;;;;;;;;;19.60;64.80;;;;;;5076455;28;20373;-62
2023/12/26 00:44:14;;;;;;;;;;;19.60;64.80;;;;;;5092869;28;20362;-62
2023/12/26 00:46:40;;;;;;;;;;;19.60;64.80;;;;;;5094669;28;20446;-62
2023/12/26 00:49:06;;;;;;;;;;;19.60;64.80;;;;;;5094191;28;19950;-62
2023/12/26 00:51:31;;;;;;;;;;;19.60;64.80;;;;;;5093197;28;19924;-62
2023/12/26 00:53:57;;;;;;;;;;;19.60;64.80;;;;;;5094009;28;19924;-62
2023/12/26 00:56:22;;;;;;;;;;;19.50;64.70;;;;;;5094383;28;20276;-62
2023/12/26 00:58:48;;;;;;;;;;;19.50;64.70;;;;;;5093429;28;19993;-62
2023/12/26 01:01:14;;;;;;;;;;;19.50;64.70;;;;;;5075574;28;19931;-62
2023/12/26 01:03:39;;;;;;;;;;;19.50;64.70;;;;;;5093932;28;19935;-62
2023/12/26 01:06:05;;;;;;;;;;;19.60;64.70;;;;;;5093231;28;19924;-62
2023/12/26 01:08:31;;;;;;;;;;;19.50;64.60;;;;;;5075996;28;19925;-62
2023/12/26 01:10:56;;;;;;;;;;;19.50;64.70;;;;;;5075129;28;20284;-62
2023/12/26 01:13:22;;;;;;;;;;;19.50;64.60;;;;;;5069517;28;20399;-62
2023/12/26 01:15:47;;;;;;;;;;;19.50;64.60;;;;;;5073665;28;19925;-62
2023/12/26 01:18:13;;;;;;;;;;;19.50;64.60;;;;;;5063041;28;19930;-62
2023/12/26 01:20:38;;;;;;;;;;;19.50;64.60;;;;;;5092930;28;19928;-62
2023/12/26 01:23:04;;;;;;;;;;;19.50;64.60;;;;;;5092988;28;20005;-62
2023/12/26 01:25:30;;;;;;;;;;;19.50;64.60;;;;;;5080628;28;19928;-62
2023/12/26 01:27:55;;;;;;;;;;;19.50;64.60;;;;;;5059715;28;19969;-62
2023/12/26 01:30:21;;;;;;;;;;;19.50;64.60;;;;;;5075365;28;19947;-62
2023/12/26 01:32:46;;;;;;;;;;;19.50;64.50;;;;;;5092900;28;19925;-62
2023/12/26 01:35:12;;;;;;;;;;;19.50;64.50;;;;;;5093175;28;19935;-62
2023/12/26 01:37:38;;;;;;;;;;;19.40;64.50;;;;;;5093506;28;19931;-62
2023/12/26 01:40:03;;;;;;;;;;;19.50;64.50;;;;;;5092528;28;19971;-62
2023/12/26 01:42:29;;;;;;;;;;;19.40;64.50;;;;;;5075394;28;20014;-62
2023/12/26 01:44:54;;;;;;;;;;;19.40;64.50;;;;;;5093200;28;19967;-62
2023/12/26 01:47:20;;;;;;;;;;;19.40;64.40;;;;;;5092621;28;20034;-62
2023/12/26 01:49:45;;;;;;;;;;;19.40;64.40;;;;;;5093192;28;20003;-62
2023/12/26 01:52:11;;;;;;;;;;;19.40;64.40;;;;;;5093143;28;20073;-62
2023/12/26 01:54:37;;;;;;;;;;;19.40;64.50;;;;;;5092045;28;20268;-62
2023/12/26 01:57:03;;;;;;;;;;;19.40;64.40;;;;;;5074811;28;19928;-61
2023/12/26 01:59:29;;;;;;;;;;;19.40;64.40;;;;;;5092724;28;19927;-62
2023/12/26 02:01:55;;;;;;;;;;;19.40;65.00;;;;;;5092212;28;19924;-62
2023/12/26 02:04:20;;;;;;;;;;;19.40;64.40;;;;;;5064499;28;19929;-62
2023/12/26 02:06:46;;;;;;;;;;;19.40;64.40;;;;;;5058269;28;19924;-62
2023/12/26 02:09:11;;;;;;;;;;;19.40;64.40;;;;;;5091868;28;19935;-62
2023/12/26 02:11:40;;;;;;;;;;;19.40;64.40;;;;;;5058267;28;20023;-62
2023/12/26 02:14:06;;;;;;;;;;;19.40;64.30;;;;;;5091388;28;20360;-62
2023/12/26 02:16:31;;;;;;;;;;;19.30;64.30;;;;;;5092344;28;20011;-62
2023/12/26 02:18:57;;;;;;;;;;;19.30;64.30;;;;;;5074833;28;19924;-62
2023/12/26 02:21:22;;;;;;;;;;;19.30;64.30;;;;;;5074827;28;19924;-61
2023/12/26 02:23:52;;;;;;;;;;;19.30;64.30;;;;;;5090658;28;19924;-62
2023/12/26 02:26:18;;;;;;;;;;;19.30;64.20;;;;;;5075074;28;19930;-62
2023/12/26 02:28:43;;;;;;;;;;;19.30;64.20;;;;;;5091996;28;19924;-62
2023/12/26 02:31:09;;;;;;;;;;;19.30;64.20;;;;;;5074774;28;20032;-62
2023/12/26 02:33:34;;;;;;;;;;;19.30;64.20;;;;;;5091769;28;19924;-62
2023/12/26 02:36:00;;;;;;;;;;;19.30;64.20;;;;;;5074041;28;19940;-62
2023/12/26 02:38:26;;;;;;;;;;;19.30;64.20;;;;;;5074452;28;19924;-62
2023/12/26 02:40:51;;;;;;;;;;;19.30;64.10;;;;;;5093041;28;20413;-62
2023/12/26 02:43:20;;;;;;;;;;;19.30;64.10;;;;;;5092057;28;20291;-62
2023/12/26 02:45:48;;;;;;;;;;;19.30;64.20;;;;;;5092640;28;19958;-62
2023/12/26 02:48:14;;;;;;;;;;;19.20;64.10;;;;;;5092437;28;20322;-62
2023/12/26 02:50:40;;;;;;;;;;;19.20;64.00;;;;;;5092047;28;19993;-62
2023/12/26 02:53:05;;;;;;;;;;;19.20;64.10;;;;;;5092517;28;19924;-62
2023/12/26 02:55:31;;;;;;;;;;;19.20;64.10;;;;;;5092947;28;19924;-62
2023/12/26 02:57:56;;;;;;;;;;;19.20;64.10;;;;;;5091538;28;20296;-62
2023/12/26 03:00:22;;;;;;;;;;;19.20;64.10;;;;;;5092574;28;19928;-62
2023/12/26 03:02:47;;;;;;;;;;;19.20;64.10;;;;;;5092493;28;20279;-62
2023/12/26 03:05:13;;;;;;;;;;;19.20;64.10;;;;;;5072969;28;19924;-62
2023/12/26 03:07:38;;;;;;;;;;;19.20;64.00;;;;;;5076704;28;20379;-62
2023/12/26 03:10:07;;;;;;;;;;;19.20;64.00;;;;;;5095803;28;19924;-62
2023/12/26 03:12:32;;;;;;;;;;;19.20;64.00;;;;;;5095812;28;20003;-62
2023/12/26 03:14:58;;;;;;;;;;;19.20;64.00;;;;;;5077667;28;20070;-62
2023/12/26 03:17:25;;;;;;;;;;;19.20;64.00;;;;;;5077906;28;20367;-62
2023/12/26 03:19:51;;;;;;;;;;;19.20;64.00;;;;;;5095587;28;19969;-61
2023/12/26 03:22:18;;;;;;;;;;;19.20;64.00;;;;;;5077760;28;19928;-62
2023/12/26 03:24:44;;;;;;;;;;;19.20;64.00;;;;;;5074978;28;19924;-62
2023/12/26 03:27:10;;;;;;;;;;;19.10;63.90;;;;;;5094908;28;19973;-62
2023/12/26 03:29:35;;;;;;;;;;;19.10;63.90;;;;;;5075854;28;19969;-62
2023/12/26 03:32:01;;;;;;;;;;;19.10;63.90;;;;;;5076634;28;19924;-62
2023/12/26 03:34:27;;;;;;;;;;;19.10;64.50;;;;;;5077425;28;20019;-62
2023/12/26 03:36:52;;;;;;;;;;;19.10;63.90;;;;;;5095142;28;19974;-62
2023/12/26 03:39:18;;;;;;;;;;;19.10;63.90;;;;;;5077048;28;20012;-62
2023/12/26 03:41:48;;;;;;;;;;;19.10;63.90;;;;;;5095453;28;20399;-62
2023/12/26 03:44:16;;;;;;;;;;;19.10;63.90;;;;;;5095286;28;19966;-62
2023/12/26 03:46:42;;;;;;;;;;;19.10;63.90;;;;;;5075598;28;20012;-62
2023/12/26 03:49:08;;;;;;;;;;;19.10;63.90;;;;;;5060592;28;19983;-63
2023/12/26 03:51:33;;;;;;;;;;;19.20;63.90;;;;;;5063117;28;19966;-62
2023/12/26 03:53:59;;;;;;;;;;;19.20;63.90;;;;;;5094426;28;19953;-63
2023/12/26 03:56:31;;;;;;;;;;;19.20;63.80;;;;;;5075924;28;19965;-62
2023/12/26 03:58:57;;;;;;;;;;;19.20;63.90;;;;;;5076722;28;19973;-62
2023/12/26 04:01:22;;;;;;;;;;;19.20;63.90;;;;;;5094246;28;19932;-63
2023/12/26 04:03:48;;;;;;;;;;;19.20;63.90;;;;;;5095217;28;20022;-62
2023/12/26 04:06:14;;;;;;;;;;;19.20;63.80;;;;;;5093693;28;19931;-63
2023/12/26 04:08:39;;;;;;;;;;;19.30;63.80;;;;;;5093747;28;19946;-63
2023/12/26 04:11:05;;;;;;;;;;;19.30;63.80;;;;;;5094751;28;19924;-63
2023/12/26 04:13:30;;;;;;;;;;;19.30;63.80;;;;;;5076943;28;19928;-63
2023/12/26 04:15:56;;;;;;;;;;;19.30;63.80;;;;;;5093905;28;19928;-62
2023/12/26 04:18:21;;;;;;;;;;;19.30;63.80;;;;;;5075692;28;20030;-63
2023/12/26 04:20:47;;;;;;;;;;;19.30;63.70;;;;;;5076972;28;19969;-62
2023/12/26 04:23:12;;;;;;;;;;;19.40;63.70;;;;;;5093599;28;19924;-62
2023/12/26 04:25:38;;;;;;;;;;;19.40;63.70;;;;;;5094915;28;19977;-62
2023/12/26 04:28:03;;;;;;;;;;;19.40;63.60;;;;;;5093690;28;19924;-63
2023/12/26 04:30:29;;;;;;;;;;;19.40;63.60;;;;;;5093954;28;19930;-63
2023/12/26 04:32:55;;;;;;;;;;;19.40;63.60;;;;;;5094309;28;20364;-62
2023/12/26 04:35:20;;;;;;;;;;;19.40;63.60;;;;;;5094050;28;19932;-62
2023/12/26 04:37:46;;;;;;;;;;;19.50;63.60;;;;;;5076116;28;20360;-62
2023/12/26 04:40:12;;;;;;;;;;;19.50;63.50;;;;;;5063993;28;19982;-62
2023/12/26 04:42:37;;;;;;;;;;;19.50;63.50;;;;;;5071491;28;19932;-62
2023/12/26 04:45:03;;;;;;;;;;;19.50;63.40;;;;;;5093975;28;19924;-63
2023/12/26 04:47:29;;;;;;;;;;;19.50;63.40;;;;;;5094426;28;19930;-62
2023/12/26 04:49:54;;;;;;;;;;;19.50;63.30;;;;;;5093310;28;20030;-62
2023/12/26 04:52:20;;;;;;;;;;;19.50;63.30;;;;;;5075876;28;20014;-62
2023/12/26 04:54:45;;;;;;;;;;;19.60;63.40;;;;;;5094342;28;19924;-62
2023/12/26 04:57:11;;;;;;;;;;;19.50;63.30;;;;;;5093119;28;19993;-62
2023/12/26 04:59:37;;;;;;;;;;;19.60;63.30;;;;;;5094193;28;19924;-62
2023/12/26 05:02:03;;;;;;;;;;;19.60;63.30;;;;;;5093201;28;20398;-62
2023/12/26 05:04:28;;;;;;;;;;;19.60;63.80;;;;;;5092646;28;19924;-62
2023/12/26 05:06:54;;;;;;;;;;;19.60;63.20;;;;;;5093459;28;19924;-62
2023/12/26 05:09:19;;;;;;;;;;;19.60;63.20;;;;;;5094039;28;19924;-62
2023/12/26 05:11:45;;;;;;;;;;;19.60;63.20;;;;;;5093235;28;19924;-62
2023/12/26 05:14:11;;;;;;;;;;;19.60;63.10;;;;;;5093623;28;20065;-62
2023/12/26 05:16:42;;;;;;;;;;;19.60;63.10;;;;;;5075515;28;19924;-63
2023/12/26 05:19:08;;;;;;;;;;;19.60;63.10;;;;;;5092993;28;19949;-62
2023/12/26 05:21:35;;;;;;;;;;;19.60;63.10;;;;;;5075270;28;19969;-63
2023/12/26 05:24:00;;;;;;;;;;;19.70;63.10;;;;;;5093283;28;19931;-62
2023/12/26 05:26:26;;;;;;;;;;;19.70;63.00;;;;;;5093056;28;19924;-62
2023/12/26 05:28:51;;;;;;;;;;;19.70;63.00;;;;;;5075673;28;19924;-63
2023/12/26 05:31:20;;;;;;;;;;;19.70;63.00;;;;;;5093337;28;20404;-62
2023/12/26 05:33:45;;;;;;;;;;;19.70;63.00;;;;;;5092848;28;19920;-62
2023/12/26 05:36:11;;;;;;;;;;;19.70;63.00;;;;;;5093337;28;19935;-62
2023/12/26 05:38:37;;;;;;;;;;;19.70;62.90;;;;;;5074399;28;19924;-62
2023/12/26 05:41:03;;;;;;;;;;;19.70;62.90;;;;;;5093377;28;19920;-62
2023/12/26 05:43:28;;;;;;;;;;;19.70;62.90;;;;;;5074796;28;19924;-62
2023/12/26 05:45:54;;;;;;;;;;;19.70;62.90;;;;;;5091982;28;19951;-63
2023/12/26 05:48:19;;;;;;;;;;;19.70;62.90;;;;;;5075214;28;19924;-63
2023/12/26 05:50:45;;;;;;;;;;;19.70;62.90;;;;;;5093255;28;20295;-63
2023/12/26 05:53:11;;;;;;;;;;;19.70;62.80;;;;;;5074275;28;20473;-63
2023/12/26 05:55:36;;;;;;;;;;;19.70;62.80;;;;;;5093206;28;19977;-62
2023/12/26 05:58:02;;;;;;;;;;;19.70;62.80;;;;;;5092814;28;19930;-62
2023/12/26 06:00:28;;;;;;;;;;;19.70;62.70;;;;;;5074335;28;19926;-62
2023/12/26 06:02:53;;;;;;;;;;;19.80;62.80;;;;;;5093005;28;20315;-62
2023/12/26 06:05:20;;;;;;;;;;;19.80;62.70;;;;;;5075004;28;19924;-62
2023/12/26 06:07:45;;;;;;;;;;;19.80;62.70;;;;;;5091612;28;19931;-63
2023/12/26 06:10:11;;;;;;;;;;;19.80;63.40;;;;;;5074709;28;20227;-63
2023/12/26 06:12:36;;;;;;;;;;;19.80;62.70;;;;;;5093258;28;19920;-63
2023/12/26 06:15:02;;;;;;;;;;;19.80;62.70;;;;;;5091771;28;19924;-63
2023/12/26 06:17:29;;;;;;;;;;;19.80;62.70;;;;;;5093059;28;19924;-63
2023/12/26 06:19:54;;;;;;;;;;;19.80;62.70;;;;;;5092942;28;19959;-63
2023/12/26 06:22:20;;;;;;;;;;;19.80;62.70;;;;;;5074031;28;20025;-63
2023/12/26 06:24:45;;;;;;;;;;;19.80;62.70;;;;;;5092982;28;19924;-63
2023/12/26 06:27:11;;;;;;;;;;;19.80;62.60;;;;;;5092664;28;19935;-63
2023/12/26 06:29:37;;;;;;;;;;;19.80;62.60;;;;;;5092073;28;19924;-63
2023/12/26 06:32:02;;;;;;;;;;;19.80;62.60;;;;;;5074072;28;19930;-62
2023/12/26 06:34:28;;;;;;;;;;;19.80;62.60;;;;;;5093095;28;19931;-63
2023/12/26 06:36:53;;;;;;;;;;;19.90;62.60;;;;;;5073714;28;19931;-63
2023/12/26 06:39:19;;;;;;;;;;;19.80;62.50;;;;;;5074550;28;19930;-63
2023/12/26 06:41:44;;;;;;;;;;;19.90;62.60;;;;;;5075715;28;19960;-63
2023/12/26 06:44:10;;;;;;;;;;;19.90;62.60;;;;;;5095051;28;19971;-63
2023/12/26 06:46:40;;;;;;;;;;;19.90;62.50;;;;;;5096574;28;19924;-63
2023/12/26 06:49:05;;;;;;;;;;;19.90;62.50;;;;;;5077167;28;20318;-63
2023/12/26 06:51:31;;;;;;;;;;;19.90;62.50;;;;;;5096863;28;19928;-63
2023/12/26 06:53:56;;;;;;;;;;;19.90;62.40;;;;;;5077930;28;19927;-63
2023/12/26 06:56:22;;;;;;;;;;;19.90;62.50;;;;;;5095891;28;19927;-63
2023/12/26 06:58:47;;;;;;;;;;;19.90;62.40;;;;;;5078057;28;19941;-62
2023/12/26 07:01:13;;;;;;;;;;;19.90;62.40;;;;;;5095615;28;19924;-63
2023/12/26 07:03:39;;;;;;;;;;;19.90;62.40;;;;;;5095732;28;19920;-62
2023/12/26 07:06:04;;;;;;;;;;;19.90;62.30;;;;;;5096172;28;20391;-63
2023/12/26 07:08:30;;;;;;;;;;;19.90;62.30;;;;;;5077901;28;19993;-60
2023/12/26 07:10:56;;;;;;;;;;;19.90;62.30;;;;;;5095420;28;19999;-63
2023/12/26 07:13:21;;;;;;;;;;;19.90;62.40;;;;;;5077749;28;20341;-62
2023/12/26 07:15:47;;;;;;;;;;;19.90;62.30;;;;;;5096062;28;20025;-62
2023/12/26 07:18:13;;;;;;;;;;;19.90;62.30;;;;;;5076455;28;19924;-62
2023/12/26 07:20:38;;;;;;;;;;;19.90;62.30;;;;;;5077441;28;19931;-62
2023/12/26 07:23:04;;;;;;;;;;;19.90;62.30;;;;;;5095310;28;20303;-62
2023/12/26 07:25:31;;;;;;;;;;;20.00;62.30;;;;;;5077201;28;20387;-63
2023/12/26 07:27:56;;;;;;;;;;;20.00;62.30;;;;;;5077399;28;19982;-63
2023/12/26 07:30:23;;;;;;;;;;;20.00;62.90;;;;;;5077855;28;19932;-63
2023/12/26 07:32:48;;;;;;;;;;;20.00;62.30;;;;;;5095077;28;19930;-63
2023/12/26 07:35:14;;;;;;;;;;;20.00;62.30;;;;;;5077194;28;20014;-63
2023/12/26 07:37:39;;;;;;;;;;;20.00;62.30;;;;;;5095722;28;20014;-62
2023/12/26 07:40:05;;;;;;;;;;;20.00;62.30;;;;;;5076735;28;20015;-63
2023/12/26 07:42:31;;;;;;;;;;;20.00;62.30;;;;;;5095484;28;19967;-62
2023/12/26 07:44:56;;;;;;;;;;;20.00;62.40;;;;;;5095440;28;19932;-61
2023/12/26 07:47:22;;;;;;;;;;;20.00;62.40;;;;;;5095133;28;19928;-62
2023/12/26 07:49:48;;;;;;;;;;;20.00;62.30;;;;;;5090932;28;19977;-64
2023/12/26 07:52:13;;;;;;;;;;;20.00;62.50;;;;;;5075234;28;19923;-64
2023/12/26 07:54:39;;;;;;;;;;;20.00;62.50;;;;;;5095645;28;19928;-66
2023/12/26 07:57:05;;;;;;;;;;;20.00;62.50;;;;;;5095037;28;19924;-65
2023/12/26 07:59:31;;;;;;;;;;;20.00;62.60;;;;;;5094717;28;19924;-65
2023/12/26 08:01:56;;;;;;;;;;;20.00;62.60;;;;;;5076949;28;19932;-65
2023/12/26 08:04:22;;;;;;;;;;;20.00;62.70;;;;;;5077200;28;20368;-65
2023/12/26 08:06:48;;;;;;;;;;;20.00;62.70;;;;;;5094359;28;20025;-66
2023/12/26 08:09:13;;;;;;;;;;;20.00;62.70;;;;;;5095158;28;20062;-66
2023/12/26 08:11:39;;;;;;;;;;;20.00;62.70;;;;;;5095176;28;20307;-66
2023/12/26 08:14:04;;;;;;;;;;;20.00;62.70;;;;;;5094156;28;20355;-65
2023/12/26 08:16:30;;;;;;;;;;;20.10;62.70;;;;;;5076746;28;19970;-65
2023/12/26 08:18:57;;;;;;;;;;;20.10;62.80;;;;;;5094902;28;20295;-64
2023/12/26 08:21:22;;;;;;;;;;;20.10;62.90;;;;;;5076049;28;19965;-64
2023/12/26 08:23:48;;;;;;;;;;;20.10;62.80;;;;;;5094585;28;19924;-63
2023/12/26 08:26:13;;;;;;;;;;;20.10;62.80;;;;;;5094272;28;20433;-64
2023/12/26 08:28:39;;;;;;;;;;;20.10;62.90;;;;;;5094292;28;19989;-63
2023/12/26 08:31:05;;;;;;;;;;;20.10;62.70;;;;;;5075968;28;20334;-64
2023/12/26 08:33:31;;;;;;;;;;;20.10;62.70;;;;;;5076879;28;19924;-64
2023/12/26 08:35:56;;;;;;;;;;;20.10;62.80;;;;;;5075294;28;19967;-64
2023/12/26 08:38:23;;;;;;;;;;;20.10;62.90;;;;;;5074365;28;19967;-63
2023/12/26 08:40:49;;;;;;;;;;;20.10;63.00;;;;;;5093704;28;19994;-63
2023/12/26 08:43:14;;;;;;;;;;;20.10;62.90;;;;;;5092368;28;20404;-64
2023/12/26 08:45:40;;;;;;;;;;;20.20;62.90;;;;;;5075119;28;19999;-63
2023/12/26 08:48:06;;;;;;;;;;;20.20;62.90;;;;;;5073986;28;19938;-64
2023/12/26 08:50:32;;;;;;;;;;;20.20;62.90;;;;;;5074694;28;19928;-64
2023/12/26 08:52:57;;;;;;;;;;;20.20;62.80;;;;;;5093482;28;20367;-60
2023/12/26 08:55:23;;;;;;;;;;;20.20;62.80;;;;;;5093458;28;19935;-64
2023/12/26 08:57:48;;;;;;;;;;;20.20;62.70;;;;;;5073514;28;19931;-63
2023/12/26 09:00:14;;;;;;;;;;;20.20;62.80;;;;;;5093557;28;19925;-62
2023/12/26 09:02:41;;;;;;;;;;;20.20;62.60;;;;;;5073447;28;19924;-62
2023/12/26 09:05:07;;;;;;;;;;;20.20;62.50;;;;;;5074040;28;20019;-63
2023/12/26 09:07:32;;;;;;;;;;;20.20;62.50;;;;;;5091912;28;19931;-63
2023/12/26 09:09:58;;;;;;;;;;;20.20;62.40;;;;;;5091937;28;20010;-62
2023/12/26 09:12:23;;;;;;;;;;;20.20;62.40;;;;;;5093807;28;20014;-63
2023/12/26 09:14:49;;;;;;;;;;;20.20;62.30;;;;;;5093701;28;19931;-64
2023/12/26 09:17:14;;;;;;;;;;;20.20;62.30;;;;;;5092044;28;19920;-63
2023/12/26 09:19:41;;;;;;;;;;;20.20;62.20;;;;;;5093029;28;19924;-62
2023/12/26 09:22:06;;;;;;;;;;;20.10;62.20;;;;;;5092091;28;20276;-62
2023/12/26 09:24:32;;;;;;;;;;;20.10;62.10;;;;;;5091350;28;19969;-62
2023/12/26 09:26:58;;;;;;;;;;;20.10;62.10;;;;;;5092804;28;19924;-64
2023/12/26 09:29:24;;;;;;;;;;;20.10;62.10;;;;;;5093736;28;19924;-62
2023/12/26 09:31:49;;;;;;;;;;;20.10;62.10;;;;;;5092579;28;19969;-65
2023/12/26 09:34:15;;;;;;;;;;;20.10;62.10;;;;;;5093869;28;19924;-72
2023/12/26 09:36:40;;;;;;;;;;;20.10;62.20;;;;;;5093390;28;19920;-63
2023/12/26 09:39:06;;;;;;;;;;;20.10;62.20;;;;;;5091960;28;19924;-66
2023/12/26 09:41:31;;;;;;;;;;;20.10;62.40;;;;;;5093238;28;20376;-63
2023/12/26 09:43:57;;;;;;;;;;;20.10;62.30;;;;;;5091132;28;20011;-65
2023/12/26 09:46:22;;;;;;;;;;;20.10;62.30;;;;;;5073100;28;20010;-64
2023/12/26 09:48:48;;;;;;;;;;;20.10;62.30;;;;;;5075146;28;19923;-65
2023/12/26 09:51:23;;;;;;;;;;;20.10;62.30;;;;;;5093000;28;19924;-65
2023/12/26 09:53:57;;;;;;;;;;;20.10;62.30;;;;;;5092589;28;19928;-65
2023/12/26 09:56:23;;;;;;;;;;;20.10;62.30;;;;;;5093642;28;19925;-65
2023/12/26 09:58:48;;;;;;;;;;;20.10;62.30;;;;;;5074713;28;19947;-64
2023/12/26 10:01:14;;;;;;;;;;;20.10;62.30;;;;;;5092938;28;20356;-66
2023/12/26 10:03:41;;;;;;;;;;;20.10;62.30;;;;;;5075636;28;19924;-65
2023/12/26 10:06:08;;;;;;;;;;;20.10;62.30;;;;;;5092398;28;19931;-65
2023/12/26 10:08:33;;;;;;;;;;;20.10;62.10;;;;;;5093391;28;19957;-65
2023/12/26 10:10:59;;;;;;;;;;;20.10;62.00;;;;;;5092758;28;19924;-65
2023/12/26 10:13:24;;;;;;;;;;;20.10;61.90;;;;;;5091925;28;19927;-65
2023/12/26 10:15:50;;;;;;;;;;;20.10;62.00;;;;;;5093281;28;19991;-65
2023/12/26 10:18:16;;;;;;;;;;;20.00;61.90;;;;;;5096909;28;19949;-63
2023/12/26 10:20:41;;;;;;;;;;;20.10;62.00;;;;;;5096843;28;19931;-64
2023/12/26 10:23:07;;;;;;;;;;;20.00;62.00;;;;;;5095359;28;19973;-64
2023/12/26 10:25:33;;;;;;;;;;;20.00;62.20;;;;;;5097557;28;19977;-63
2023/12/26 10:27:59;;;;;;;;;;;20.00;62.20;;;;;;5078176;28;19924;-63
2023/12/26 10:30:25;;;;;;;;;;;20.10;62.30;;;;;;5079282;28;19946;-63
2023/12/26 10:32:58;;;;;;;;;;;20.00;62.30;;;;;;5097241;28;19920;-63
2023/12/26 10:35:23;;;;;;;;;;;20.10;62.50;;;;;;5078495;28;19928;-63
2023/12/26 10:37:49;;;;;;;;;;;20.00;62.30;;;;;;5097331;28;19926;-63
2023/12/26 10:40:14;;;;;;;;;;;20.00;62.30;;;;;;5078429;28;19977;-65
2023/12/26 10:42:40;;;;;;;;;;;20.10;62.30;;;;;;5096713;28;20329;-64
2023/12/26 10:45:06;;;;;;;;;;;20.00;62.20;;;;;;5096547;28;19971;-64
2023/12/26 10:47:32;;;;;;;;;;;20.00;62.00;;;;;;5078635;28;20382;-64
2023/12/26 10:49:59;;;;;;;;;;;20.00;62.00;;;;;;5095993;28;19975;-64
2023/12/26 10:52:28;;;;;;;;;;;20.00;62.00;;;;;;5096941;28;19920;-64
2023/12/26 10:54:58;;;;;;;;;;;20.00;62.00;;;;;;5096631;28;20026;-64
2023/12/26 10:57:24;;;;;;;;;;;20.00;62.00;;;;;;5078303;28;19924;-65
2023/12/26 13:53:56;;;;;;;;;;;20.10;60.80;;;;;;5108912;28;19924;-65
2023/12/26 13:56:22;;;;;;;;;;;20.10;60.70;;;;;;5093592;28;19970;-64
2023/12/26 13:58:48;;;;;;;;;;;20.10;60.70;;;;;;5074997;28;19924;-64
2023/12/26 14:01:15;;;;;;;;;;;20.10;60.70;;;;;;5074882;28;20049;-64
2023/12/26 14:03:48;;;;;;;;;;;20.10;60.70;;;;;;5058750;28;19931;-64
2023/12/26 14:06:13;;;;;;;;;;;20.10;60.70;;;;;;5074522;28;19931;-65
2023/12/26 14:08:39;;;;;;;;;;;20.10;60.70;;;;;;5093546;28;19924;-65
2023/12/26 14:11:05;;;;;;;;;;;20.10;60.70;;;;;;5075377;28;19930;-65
2023/12/26 14:13:30;;;;;;;;;;;20.10;60.70;;;;;;5075051;28;20359;-65
2023/12/26 14:15:56;;;;;;;;;;;20.10;60.70;;;;;;5093078;28;19924;-65
2023/12/26 14:18:21;;;;;;;;;;;20.10;60.60;;;;;;5093097;28;19924;-65
2023/12/26 14:20:47;;;;;;;;;;;20.10;60.60;;;;;;5092296;28;19920;-64
2023/12/26 14:23:12;;;;;;;;;;;20.20;60.60;;;;;;5074775;28;19928;-64
2023/12/26 14:25:38;;;;;;;;;;;20.20;60.60;;;;;;5074999;28;19924;-65
2023/12/26 14:28:03;;;;;;;;;;;20.20;60.60;;;;;;5073947;28;19931;-64
2023/12/26 14:30:29;;;;;;;;;;;20.20;60.60;;;;;;5073811;28;19924;-64
2023/12/26 14:32:55;;;;;;;;;;;20.20;60.50;;;;;;5075062;28;19920;-64
2023/12/26 14:35:20;;;;;;;;;;;20.20;60.50;;;;;;5074510;28;19924;-64
2023/12/26 14:37:46;;;;;;;;;;;20.20;60.50;;;;;;5092487;28;20018;-64
2023/12/26 14:40:11;;;;;;;;;;;20.20;60.50;;;;;;5092263;28;20395;-64
2023/12/26 14:42:37;;;;;;;;;;;20.20;60.40;;;;;;5093028;28;19924;-64
2023/12/26 14:45:03;;;;;;;;;;;20.20;60.40;;;;;;5092541;28;19920;-65
2023/12/26 14:47:28;;;;;;;;;;;20.20;60.40;;;;;;5074457;28;19935;-64
2023/12/26 14:49:54;;;;;;;;;;;20.20;60.30;;;;;;5074641;28;19924;-65
2023/12/26 14:52:19;;;;;;;;;;;20.20;60.40;;;;;;5075145;28;19920;-64
2023/12/26 14:54:45;;;;;;;;;;;20.20;60.40;;;;;;5091657;28;20322;-64
2023/12/26 14:57:10;;;;;;;;;;;20.20;60.30;;;;;;5074457;28;19975;-64
2023/12/26 14:59:36;;;;;;;;;;;20.30;60.30;;;;;;5073874;28;19920;-64
2023/12/26 15:02:03;;;;;;;;;;;20.20;60.30;;;;;;5091864;28;19954;-64
2023/12/26 15:04:29;;;;;;;;;;;20.20;60.30;;;;;;5096949;28;19930;-64
2023/12/26 15:06:58;;;;;;;;;;;20.30;60.30;;;;;;5078080;28;20435;-64
2023/12/26 15:09:24;;;;;;;;;;;20.30;60.30;;;;;;5078619;28;20015;-65
2023/12/26 15:11:49;;;;;;;;;;;20.30;60.30;;;;;;5096879;28;20432;-65
2023/12/26 15:14:16;;;;;;;;;;;20.30;60.30;;;;;;5078149;28;19928;-65
2023/12/26 15:16:41;;;;;;;;;;;20.30;60.30;;;;;;5095780;28;19924;-65
2023/12/26 15:19:07;;;;;;;;;;;20.30;60.30;;;;;;5077858;28;20465;-64
2023/12/26 15:21:32;;;;;;;;;;;20.30;60.20;;;;;;5096446;28;20368;-65
2023/12/26 15:23:58;;;;;;;;;;;20.30;60.20;;;;;;5095283;28;19932;-65
2023/12/26 15:26:23;;;;;;;;;;;20.30;60.20;;;;;;5096137;28;19935;-65
2023/12/26 15:28:49;;;;;;;;;;;20.30;60.20;;;;;;5078126;28;20424;-65
2023/12/26 15:31:15;;;;;;;;;;;20.30;60.20;;;;;;5076987;28;19945;-65
2023/12/26 15:33:42;;;;;;;;;;;20.30;60.20;;;;;;5078080;28;19966;-65
2023/12/26 15:36:17;;;;;;;;;;;20.30;60.20;;;;;;5096122;28;19920;-65
2023/12/26 15:38:43;;;;;;;;;;;20.30;60.20;;;;;;5095542;28;19928;-64
2023/12/26 15:41:09;;;;;;;;;;;20.30;60.20;;;;;;5095974;28;20383;-64
2023/12/26 15:43:35;;;;;;;;;;;20.30;60.20;;;;;;5077085;28;19927;-64
2023/12/26 15:46:00;;;;;;;;;;;20.30;60.20;;;;;;5083298;28;19924;-65
2023/12/26 15:48:26;;;;;;;;;;;20.30;60.20;;;;;;5075758;28;20011;-65
2023/12/26 15:50:51;;;;;;;;;;;20.30;60.20;;;;;;5074999;28;19929;-65
2023/12/26 15:53:17;;;;;;;;;;;20.30;60.20;;;;;;5091429;28;19963;-64
2023/12/26 15:55:42;;;;;;;;;;;20.30;60.20;;;;;;5091032;28;19979;-65
2023/12/26 15:58:09;;;;;;;;;;;20.30;60.80;;;;;;5061940;28;20387;-64
2023/12/26 16:00:37;;;;;;;;;;;20.30;60.20;;;;;;5095624;28;19924;-64
2023/12/26 16:03:03;;;;;;;;;;;20.30;60.20;;;;;;5095492;28;19935;-64
2023/12/26 16:05:29;;;;;;;;;;;20.30;60.20;;;;;;5094941;28;19924;-64
2023/12/26 16:07:55;;;;;;;;;;;20.30;60.20;;;;;;5095329;28;19924;-65
2023/12/26 16:10:23;;;;;;;;;;;20.30;60.20;;;;;;5095780;28;19924;-64
2023/12/26 16:12:49;;;;;;;;;;;20.30;60.20;;;;;;5094656;28;19970;-65
2023/12/26 16:15:14;;;;;;;;;;;20.30;60.20;;;;;;5093444;28;20598;-65
2023/12/26 16:17:40;;;;;;;;;;;20.30;60.20;;;;;;5095430;28;19990;-64
2023/12/26 16:20:06;;;;;;;;;;;20.30;60.20;;;;;;5092763;28;20375;-64
2023/12/26 16:22:32;;;;;;;;;;;20.30;60.20;;;;;;5075212;28;19931;-64
2023/12/26 16:24:57;;;;;;;;;;;20.30;60.20;;;;;;5074815;28;20055;-64
2023/12/26 16:27:24;;;;;;;;;;;20.30;60.20;;;;;;5056083;28;19967;-65
2023/12/26 16:29:49;;;;;;;;;;;20.30;60.20;;;;;;5074506;28;19928;-64
2023/12/26 16:32:15;;;;;;;;;;;20.30;60.20;;;;;;5076525;28;20303;-65
2023/12/26 16:34:40;;;;;;;;;;;20.30;60.20;;;;;;5076278;28;19928;-64
2023/12/26 16:37:06;;;;;;;;;;;20.30;60.20;;;;;;5076625;28;19932;-64
2023/12/26 16:39:31;;;;;;;;;;;20.30;60.20;;;;;;5075838;28;19924;-64
2023/12/26 16:42:01;;;;;;;;;;;20.30;60.20;;;;;;5075960;28;20393;-64
2023/12/26 16:44:26;;;;;;;;;;;20.30;60.20;;;;;;5094633;28;19936;-64
2023/12/26 16:46:52;;;;;;;;;;;20.40;60.30;;;;;;5093363;28;19928;-64
2023/12/26 16:49:17;;;;;;;;;;;20.30;60.20;;;;;;5094650;28;19925;-64
2023/12/26 16:51:43;;;;;;;;;;;20.40;60.20;;;;;;5076460;28;19920;-64
2023/12/26 16:54:08;;;;;;;;;;;20.40;60.20;;;;;;5093976;28;19924;-64
2023/12/26 16:56:34;;;;;;;;;;;20.30;60.20;;;;;;5076615;28;19924;-64
2023/12/26 16:58:59;;;;;;;;;;;20.40;60.20;;;;;;5075518;28;19924;-64
2023/12/26 17:01:25;;;;;;;;;;;20.40;60.20;;;;;;5093614;28;19931;-64